sensor_id;sensor_type;location;lat;lon;timestamp;pressure;altitude;pressure_sealevel;temperature;humidity
46379;BME280;32084;42.254;22.744;2023-05-21T00:00:23;94975.13;;;13.59;82.69
46379;BME280;32084;42.254;22.744;2023-05-21T00:02:49;94989.88;;;13.78;82.32
46379;BME280;32084;42.254;22.744;2023-05-21T00:05:16;94984.03;;;13.74;81.26
46379;BME280;32084;42.254;22.744;2023-05-21T00:07:43;94985.03;;;13.58;81.77
46379;BME280;32084;42.254;22.744;2023-05-21T00:10:09;94993.28;;;13.72;80.90
46379;BME280;32084;42.254;22.744;2023-05-21T00:12:35;94982.72;;;13.70;82.14
46379;BME280;32084;42.254;22.744;2023-05-21T00:15:02;94992.69;;;13.46;83.46
46379;BME280;32084;42.254;22.744;2023-05-21T00:17:28;94969.38;;;13.24;83.92
46379;BME280;32084;42.254;22.744;2023-05-21T00:19:54;94985.72;;;13.37;84.04
46379;BME280;32084;42.254;22.744;2023-05-21T00:22:21;94979.41;;;13.68;82.31
46379;BME280;32084;42.254;22.744;2023-05-21T00:24:48;94980.31;;;13.90;81.83
46379;BME280;32084;42.254;22.744;2023-05-21T00:27:14;94988.53;;;14.18;79.44
46379;BME280;32084;42.254;22.744;2023-05-21T00:29:40;94995.06;;;14.60;77.01
46379;BME280;32084;42.254;22.744;2023-05-21T00:32:06;94983.50;;;14.81;75.61
46379;BME280;32084;42.254;22.744;2023-05-21T00:34:32;94991.97;;;15.00;74.66
46379;BME280;32084;42.254;22.744;2023-05-21T00:36:58;94986.50;;;15.15;74.33
46379;BME280;32084;42.254;22.744;2023-05-21T00:39:27;94986.13;;;15.18;74.69
46379;BME280;32084;42.254;22.744;2023-05-21T00:41:53;94986.78;;;15.20;75.27
46379;BME280;32084;42.254;22.744;2023-05-21T00:44:21;94982.25;;;14.99;76.27
46379;BME280;32084;42.254;22.744;2023-05-21T00:46:48;94989.47;;;14.77;77.88
46379;BME280;32084;42.254;22.744;2023-05-21T00:49:18;94986.25;;;14.67;77.50
46379;BME280;32084;42.254;22.744;2023-05-21T00:51:47;94976.13;;;14.69;77.24
46379;BME280;32084;42.254;22.744;2023-05-21T00:54:13;94979.41;;;14.86;76.70
46379;BME280;32084;42.254;22.744;2023-05-21T00:56:39;94983.19;;;14.91;76.38
46379;BME280;32084;42.254;22.744;2023-05-21T00:59:06;94978.66;;;14.55;77.09
46379;BME280;32084;42.254;22.744;2023-05-21T01:01:32;94971.97;;;14.51;77.71
46379;BME280;32084;42.254;22.744;2023-05-21T01:04:01;94960.66;;;14.56;78.93
46379;BME280;32084;42.254;22.744;2023-05-21T01:06:27;94963.56;;;14.76;76.63
46379;BME280;32084;42.254;22.744;2023-05-21T01:08:54;94970.31;;;14.87;77.00
46379;BME280;32084;42.254;22.744;2023-05-21T01:11:39;94969.41;;;14.43;78.01
46379;BME280;32084;42.254;22.744;2023-05-21T01:14:05;94961.66;;;14.18;78.97
46379;BME280;32084;42.254;22.744;2023-05-21T01:16:36;94955.81;;;14.15;80.07
46379;BME280;32084;42.254;22.744;2023-05-21T01:19:03;94950.38;;;14.08;79.99
46379;BME280;32084;42.254;22.744;2023-05-21T01:21:29;94951.50;;;13.99;80.65
46379;BME280;32084;42.254;22.744;2023-05-21T01:24:00;94949.16;;;13.81;81.01
46379;BME280;32084;42.254;22.744;2023-05-21T01:26:26;94951.13;;;13.87;80.94
46379;BME280;32084;42.254;22.744;2023-05-21T01:28:53;94948.06;;;13.90;80.43
46379;BME280;32084;42.254;22.744;2023-05-21T01:31:25;94945.38;;;13.75;80.58
46379;BME280;32084;42.254;22.744;2023-05-21T01:33:52;94948.34;;;13.65;82.28
46379;BME280;32084;42.254;22.744;2023-05-21T01:36:21;94948.16;;;13.52;83.08
46379;BME280;32084;42.254;22.744;2023-05-21T01:39:25;94949.91;;;13.60;82.16
46379;BME280;32084;42.254;22.744;2023-05-21T01:41:44;94938.81;;;13.63;82.40
46379;BME280;32084;42.254;22.744;2023-05-21T01:44:10;94932.31;;;13.57;82.40
46379;BME280;32084;42.254;22.744;2023-05-21T01:46:37;94939.91;;;13.39;83.70
46379;BME280;32084;42.254;22.744;2023-05-21T01:49:04;94932.22;;;13.13;84.41
46379;BME280;32084;42.254;22.744;2023-05-21T01:51:31;94926.28;;;13.02;85.06
46379;BME280;32084;42.254;22.744;2023-05-21T01:53:57;94932.44;;;12.88;85.05
46379;BME280;32084;42.254;22.744;2023-05-21T01:56:23;94933.31;;;12.88;85.33
46379;BME280;32084;42.254;22.744;2023-05-21T01:58:50;94934.13;;;12.89;86.29
46379;BME280;32084;42.254;22.744;2023-05-21T02:01:17;94933.56;;;12.79;86.34
46379;BME280;32084;42.254;22.744;2023-05-21T02:03:43;94938.28;;;12.92;85.36
46379;BME280;32084;42.254;22.744;2023-05-21T02:06:09;94940.00;;;13.07;84.97
46379;BME280;32084;42.254;22.744;2023-05-21T02:08:35;94929.09;;;13.09;84.96
46379;BME280;32084;42.254;22.744;2023-05-21T02:11:01;94921.50;;;13.13;85.20
46379;BME280;32084;42.254;22.744;2023-05-21T02:13:27;94912.25;;;13.15;85.64
46379;BME280;32084;42.254;22.744;2023-05-21T02:15:54;94912.88;;;13.02;85.17
46379;BME280;32084;42.254;22.744;2023-05-21T02:18:20;94916.78;;;13.00;86.05
46379;BME280;32084;42.254;22.744;2023-05-21T02:20:46;94919.69;;;13.28;84.50
46379;BME280;32084;42.254;22.744;2023-05-21T02:23:12;94915.09;;;13.66;82.10
46379;BME280;32084;42.254;22.744;2023-05-21T02:25:39;94917.09;;;13.94;80.21
46379;BME280;32084;42.254;22.744;2023-05-21T02:28:05;94916.59;;;14.20;78.67
46379;BME280;32084;42.254;22.744;2023-05-21T02:30:31;94914.03;;;14.34;78.03
46379;BME280;32084;42.254;22.744;2023-05-21T02:32:57;94917.66;;;14.41;78.38
46379;BME280;32084;42.254;22.744;2023-05-21T02:35:24;94926.47;;;14.35;77.71
46379;BME280;32084;42.254;22.744;2023-05-21T02:37:50;94913.13;;;13.90;79.15
46379;BME280;32084;42.254;22.744;2023-05-21T02:40:16;94921.00;;;13.62;80.84
46379;BME280;32084;42.254;22.744;2023-05-21T02:42:42;94918.34;;;13.32;82.68
46379;BME280;32084;42.254;22.744;2023-05-21T02:45:08;94911.88;;;13.18;83.54
46379;BME280;32084;42.254;22.744;2023-05-21T02:47:35;94917.19;;;13.26;84.14
46379;BME280;32084;42.254;22.744;2023-05-21T02:50:04;94911.97;;;13.10;83.90
46379;BME280;32084;42.254;22.744;2023-05-21T02:52:30;94917.88;;;13.05;84.21
46379;BME280;32084;42.254;22.744;2023-05-21T02:54:56;94914.91;;;13.00;84.46
46379;BME280;32084;42.254;22.744;2023-05-21T02:57:22;94921.03;;;13.24;83.75
46379;BME280;32084;42.254;22.744;2023-05-21T02:59:48;94912.94;;;13.62;81.40
46379;BME280;32084;42.254;22.744;2023-05-21T03:02:14;94918.00;;;14.01;79.41
46379;BME280;32084;42.254;22.744;2023-05-21T03:04:41;94926.34;;;14.21;78.46
46379;BME280;32084;42.254;22.744;2023-05-21T03:07:14;94922.66;;;14.44;77.72
46379;BME280;32084;42.254;22.744;2023-05-21T03:09:40;94934.28;;;14.51;78.01
46379;BME280;32084;42.254;22.744;2023-05-21T03:12:07;94926.34;;;14.43;77.46
46379;BME280;32084;42.254;22.744;2023-05-21T03:14:33;94930.50;;;14.60;76.90
46379;BME280;32084;42.254;22.744;2023-05-21T03:17:00;94923.59;;;14.73;76.32
46379;BME280;32084;42.254;22.744;2023-05-21T03:19:28;94924.22;;;14.75;76.12
46379;BME280;32084;42.254;22.744;2023-05-21T03:21:55;94915.28;;;14.89;75.24
46379;BME280;32084;42.254;22.744;2023-05-21T03:24:21;94920.31;;;14.99;74.79
46379;BME280;32084;42.254;22.744;2023-05-21T03:26:47;94919.34;;;15.07;74.69
46379;BME280;32084;42.254;22.744;2023-05-21T03:29:14;94931.19;;;15.12;74.14
46379;BME280;32084;42.254;22.744;2023-05-21T03:31:41;94921.28;;;15.19;73.95
46379;BME280;32084;42.254;22.744;2023-05-21T03:34:07;94916.03;;;15.33;73.41
46379;BME280;32084;42.254;22.744;2023-05-21T03:36:33;94920.81;;;15.37;73.67
46379;BME280;32084;42.254;22.744;2023-05-21T03:38:59;94922.78;;;15.50;73.21
46379;BME280;32084;42.254;22.744;2023-05-21T03:41:25;94921.38;;;15.61;72.58
46379;BME280;32084;42.254;22.744;2023-05-21T03:43:51;94917.78;;;15.75;72.00
46379;BME280;32084;42.254;22.744;2023-05-21T03:46:17;94925.09;;;15.88;71.76
46379;BME280;32084;42.254;22.744;2023-05-21T03:48:43;94921.81;;;15.93;71.72
46379;BME280;32084;42.254;22.744;2023-05-21T03:51:10;94920.16;;;15.98;71.62
46379;BME280;32084;42.254;22.744;2023-05-21T03:53:37;94930.63;;;16.22;70.96
46379;BME280;32084;42.254;22.744;2023-05-21T03:56:04;94919.47;;;16.25;70.85
46379;BME280;32084;42.254;22.744;2023-05-21T03:58:30;94917.38;;;16.27;70.64
46379;BME280;32084;42.254;22.744;2023-05-21T04:00:56;94912.63;;;16.22;70.35
46379;BME280;32084;42.254;22.744;2023-05-21T04:03:22;94923.16;;;16.24;70.31
46379;BME280;32084;42.254;22.744;2023-05-21T04:05:48;94923.22;;;16.37;70.15
46379;BME280;32084;42.254;22.744;2023-05-21T04:08:14;94919.97;;;16.62;69.21
46379;BME280;32084;42.254;22.744;2023-05-21T04:10:40;94924.16;;;16.71;69.86
46379;BME280;32084;42.254;22.744;2023-05-21T04:13:06;94921.28;;;16.79;68.83
46379;BME280;32084;42.254;22.744;2023-05-21T04:15:32;94920.09;;;17.02;67.64
46379;BME280;32084;42.254;22.744;2023-05-21T04:18:00;94916.34;;;16.96;69.62
46379;BME280;32084;42.254;22.744;2023-05-21T04:20:26;94937.47;;;16.79;69.12
46379;BME280;32084;42.254;22.744;2023-05-21T04:22:52;94927.03;;;16.63;68.80
46379;BME280;32084;42.254;22.744;2023-05-21T04:25:18;94926.25;;;16.75;69.87
46379;BME280;32084;42.254;22.744;2023-05-21T04:27:45;94925.50;;;17.02;68.91
46379;BME280;32084;42.254;22.744;2023-05-21T04:30:12;94923.81;;;17.27;66.90
46379;BME280;32084;42.254;22.744;2023-05-21T04:32:38;94930.03;;;17.54;67.01
46379;BME280;32084;42.254;22.744;2023-05-21T04:35:04;94930.44;;;17.58;65.64
46379;BME280;32084;42.254;22.744;2023-05-21T04:37:30;94929.63;;;17.58;66.05
46379;BME280;32084;42.254;22.744;2023-05-21T04:40:00;94912.59;;;17.44;66.41
46379;BME280;32084;42.254;22.744;2023-05-21T04:42:26;94920.25;;;17.47;65.58
46379;BME280;32084;42.254;22.744;2023-05-21T04:44:52;94926.91;;;17.37;66.56
46379;BME280;32084;42.254;22.744;2023-05-21T04:47:20;94919.44;;;17.26;67.00
46379;BME280;32084;42.254;22.744;2023-05-21T04:49:46;94921.75;;;17.23;67.54
46379;BME280;32084;42.254;22.744;2023-05-21T04:52:12;94926.13;;;17.17;66.64
46379;BME280;32084;42.254;22.744;2023-05-21T04:54:38;94922.78;;;17.15;66.87
46379;BME280;32084;42.254;22.744;2023-05-21T04:57:07;94926.31;;;17.22;66.99
46379;BME280;32084;42.254;22.744;2023-05-21T04:59:33;94922.34;;;17.18;68.73
46379;BME280;32084;42.254;22.744;2023-05-21T05:01:59;94920.09;;;17.15;67.86
46379;BME280;32084;42.254;22.744;2023-05-21T05:04:25;94921.75;;;17.09;67.20
46379;BME280;32084;42.254;22.744;2023-05-21T05:06:51;94917.56;;;17.07;69.31
46379;BME280;32084;42.254;22.744;2023-05-21T05:09:18;94930.47;;;17.05;69.14
46379;BME280;32084;42.254;22.744;2023-05-21T05:11:46;94927.97;;;17.10;68.22
46379;BME280;32084;42.254;22.744;2023-05-21T05:14:12;94915.50;;;17.29;67.95
46379;BME280;32084;42.254;22.744;2023-05-21T05:16:38;94928.19;;;17.28;68.12
46379;BME280;32084;42.254;22.744;2023-05-21T05:19:04;94929.44;;;17.46;67.05
46379;BME280;32084;42.254;22.744;2023-05-21T05:21:30;94918.16;;;17.62;67.37
46379;BME280;32084;42.254;22.744;2023-05-21T05:23:57;94931.06;;;17.60;65.56
46379;BME280;32084;42.254;22.744;2023-05-21T05:26:24;94926.28;;;17.62;67.00
46379;BME280;32084;42.254;22.744;2023-05-21T05:28:50;94925.25;;;17.63;67.24
46379;BME280;32084;42.254;22.744;2023-05-21T05:31:17;94919.81;;;17.70;66.91
46379;BME280;32084;42.254;22.744;2023-05-21T05:33:43;94921.88;;;17.81;66.17
46379;BME280;32084;42.254;22.744;2023-05-21T05:36:09;94927.47;;;18.06;64.91
46379;BME280;32084;42.254;22.744;2023-05-21T05:38:35;94933.41;;;18.80;65.02
46379;BME280;32084;42.254;22.744;2023-05-21T05:41:01;94935.47;;;19.42;62.13
46379;BME280;32084;42.254;22.744;2023-05-21T05:43:27;94931.88;;;19.73;60.73
46379;BME280;32084;42.254;22.744;2023-05-21T05:45:53;94921.97;;;19.60;58.56
46379;BME280;32084;42.254;22.744;2023-05-21T05:48:19;94923.78;;;19.16;60.55
46379;BME280;32084;42.254;22.744;2023-05-21T05:50:46;94925.91;;;18.82;62.82
46379;BME280;32084;42.254;22.744;2023-05-21T05:53:12;94922.19;;;18.70;63.01
46379;BME280;32084;42.254;22.744;2023-05-21T05:55:39;94913.97;;;18.45;63.41
46379;BME280;32084;42.254;22.744;2023-05-21T05:58:06;94919.41;;;18.38;64.93
46379;BME280;32084;42.254;22.744;2023-05-21T06:00:32;94919.81;;;18.42;64.42
46379;BME280;32084;42.254;22.744;2023-05-21T06:02:58;94916.09;;;18.36;64.72
46379;BME280;32084;42.254;22.744;2023-05-21T06:05:24;94918.38;;;18.39;65.74
46379;BME280;32084;42.254;22.744;2023-05-21T06:07:50;94923.59;;;18.41;64.80
46379;BME280;32084;42.254;22.744;2023-05-21T06:10:16;94916.94;;;18.37;66.06
46379;BME280;32084;42.254;22.744;2023-05-21T06:12:43;94915.00;;;18.44;65.90
46379;BME280;32084;42.254;22.744;2023-05-21T06:15:09;94906.88;;;18.50;66.08
46379;BME280;32084;42.254;22.744;2023-05-21T06:17:35;94907.75;;;18.44;66.14
46379;BME280;32084;42.254;22.744;2023-05-21T06:20:02;94914.38;;;18.48;64.54
46379;BME280;32084;42.254;22.744;2023-05-21T06:22:28;94917.44;;;18.59;66.82
46379;BME280;32084;42.254;22.744;2023-05-21T06:24:55;94912.34;;;18.76;64.33
46379;BME280;32084;42.254;22.744;2023-05-21T06:27:21;94912.34;;;18.76;65.29
46379;BME280;32084;42.254;22.744;2023-05-21T06:29:47;94909.66;;;18.82;63.96
46379;BME280;32084;42.254;22.744;2023-05-21T06:32:13;94897.09;;;18.88;63.47
46379;BME280;32084;42.254;22.744;2023-05-21T06:34:39;94897.31;;;18.80;63.41
46379;BME280;32084;42.254;22.744;2023-05-21T06:37:05;94907.34;;;18.79;65.84
46379;BME280;32084;42.254;22.744;2023-05-21T06:39:32;94898.59;;;18.77;65.48
46379;BME280;32084;42.254;22.744;2023-05-21T06:41:58;94889.81;;;18.88;64.14
46379;BME280;32084;42.254;22.744;2023-05-21T06:44:24;94891.53;;;19.08;61.97
46379;BME280;32084;42.254;22.744;2023-05-21T06:46:50;94894.41;;;19.38;64.01
46379;BME280;32084;42.254;22.744;2023-05-21T06:49:16;94891.66;;;19.88;61.76
46379;BME280;32084;42.254;22.744;2023-05-21T06:51:42;94888.94;;;20.74;58.62
46379;BME280;32084;42.254;22.744;2023-05-21T06:54:08;94881.75;;;21.34;57.91
46379;BME280;32084;42.254;22.744;2023-05-21T06:56:34;94890.19;;;21.68;56.61
46379;BME280;32084;42.254;22.744;2023-05-21T06:59:00;94879.91;;;21.70;55.60
46379;BME280;32084;42.254;22.744;2023-05-21T07:01:27;94884.63;;;21.62;56.07
46379;BME280;32084;42.254;22.744;2023-05-21T07:03:53;94877.56;;;21.61;55.84
46379;BME280;32084;42.254;22.744;2023-05-21T07:06:19;94879.53;;;21.90;56.47
46379;BME280;32084;42.254;22.744;2023-05-21T07:08:46;94884.00;;;22.08;54.42
46379;BME280;32084;42.254;22.744;2023-05-21T07:11:14;94882.50;;;21.88;53.51
46379;BME280;32084;42.254;22.744;2023-05-21T07:13:40;94885.56;;;22.03;54.14
46379;BME280;32084;42.254;22.744;2023-05-21T07:16:06;94870.09;;;21.69;54.56
46379;BME280;32084;42.254;22.744;2023-05-21T07:18:32;94881.16;;;21.43;54.82
46379;BME280;32084;42.254;22.744;2023-05-21T07:20:58;94873.81;;;21.20;54.22
46379;BME280;32084;42.254;22.744;2023-05-21T07:23:24;94856.91;;;21.18;54.13
46379;BME280;32084;42.254;22.744;2023-05-21T07:25:51;94864.38;;;21.35;54.79
46379;BME280;32084;42.254;22.744;2023-05-21T07:28:17;94870.91;;;21.81;54.23
46379;BME280;32084;42.254;22.744;2023-05-21T07:30:43;94872.25;;;22.71;52.84
46379;BME280;32084;42.254;22.744;2023-05-21T07:33:09;94872.59;;;23.21;50.78
46379;BME280;32084;42.254;22.744;2023-05-21T07:35:35;94873.66;;;23.53;51.24
46379;BME280;32084;42.254;22.744;2023-05-21T07:38:01;94861.94;;;23.70;50.34
46379;BME280;32084;42.254;22.744;2023-05-21T07:40:28;94865.28;;;23.77;47.86
46379;BME280;32084;42.254;22.744;2023-05-21T07:42:54;94866.56;;;23.52;48.21
46379;BME280;32084;42.254;22.744;2023-05-21T07:45:21;94872.34;;;23.39;48.28
46379;BME280;32084;42.254;22.744;2023-05-21T07:47:47;94869.78;;;23.66;48.84
46379;BME280;32084;42.254;22.744;2023-05-21T07:50:13;94861.94;;;24.09;48.38
46379;BME280;32084;42.254;22.744;2023-05-21T07:52:39;94862.25;;;24.51;47.80
46379;BME280;32084;42.254;22.744;2023-05-21T07:55:05;94860.31;;;24.52;46.89
46379;BME280;32084;42.254;22.744;2023-05-21T07:57:32;94864.81;;;23.80;46.66
46379;BME280;32084;42.254;22.744;2023-05-21T07:59:58;94865.81;;;23.40;46.31
46379;BME280;32084;42.254;22.744;2023-05-21T08:02:24;94864.00;;;23.80;47.41
46379;BME280;32084;42.254;22.744;2023-05-21T08:04:50;94860.59;;;23.89;47.76
46379;BME280;32084;42.254;22.744;2023-05-21T08:07:17;94865.97;;;23.84;46.35
46379;BME280;32084;42.254;22.744;2023-05-21T08:09:44;94877.06;;;23.27;43.23
46379;BME280;32084;42.254;22.744;2023-05-21T08:12:10;94879.13;;;23.36;42.43
46379;BME280;32084;42.254;22.744;2023-05-21T08:14:40;94881.63;;;23.55;41.56
46379;BME280;32084;42.254;22.744;2023-05-21T08:17:09;94883.53;;;23.37;40.86
46379;BME280;32084;42.254;22.744;2023-05-21T08:19:36;94886.41;;;23.48;39.10
46379;BME280;32084;42.254;22.744;2023-05-21T08:22:02;94892.53;;;23.55;38.77
46379;BME280;32084;42.254;22.744;2023-05-21T08:24:28;94885.13;;;24.06;38.99
46379;BME280;32084;42.254;22.744;2023-05-21T08:26:54;94897.75;;;24.12;38.28
46379;BME280;32084;42.254;22.744;2023-05-21T08:29:20;94905.00;;;24.24;36.75
46379;BME280;32084;42.254;22.744;2023-05-21T08:31:47;94908.72;;;24.34;37.03
46379;BME280;32084;42.254;22.744;2023-05-21T08:34:13;94911.78;;;24.60;36.47
46379;BME280;32084;42.254;22.744;2023-05-21T08:36:39;94908.94;;;24.72;37.82
46379;BME280;32084;42.254;22.744;2023-05-21T08:39:07;94907.91;;;24.78;35.74
46379;BME280;32084;42.254;22.744;2023-05-21T08:41:34;94913.13;;;25.29;35.69
46379;BME280;32084;42.254;22.744;2023-05-21T08:44:01;94913.78;;;24.92;35.85
46379;BME280;32084;42.254;22.744;2023-05-21T08:46:31;94910.53;;;24.07;37.02
46379;BME280;32084;42.254;22.744;2023-05-21T08:48:59;94911.13;;;23.58;38.43
46379;BME280;32084;42.254;22.744;2023-05-21T08:51:27;94915.09;;;23.16;39.64
46379;BME280;32084;42.254;22.744;2023-05-21T08:53:54;94910.38;;;23.00;39.33
46379;BME280;32084;42.254;22.744;2023-05-21T08:56:20;94910.09;;;23.13;39.49
46379;BME280;32084;42.254;22.744;2023-05-21T08:58:47;94924.22;;;23.10;39.34
46379;BME280;32084;42.254;22.744;2023-05-21T09:01:13;94910.22;;;23.18;39.77
46379;BME280;32084;42.254;22.744;2023-05-21T09:03:39;94921.50;;;23.10;40.18
46379;BME280;32084;42.254;22.744;2023-05-21T09:06:09;94917.16;;;22.97;40.69
46379;BME280;32084;42.254;22.744;2023-05-21T09:08:37;94932.00;;;22.90;40.90
46379;BME280;32084;42.254;22.744;2023-05-21T09:11:03;94930.22;;;22.55;40.26
46379;BME280;32084;42.254;22.744;2023-05-21T09:13:30;94936.56;;;22.32;40.94
46379;BME280;32084;42.254;22.744;2023-05-21T09:15:57;94931.25;;;22.01;40.98
46379;BME280;32084;42.254;22.744;2023-05-21T09:18:23;94931.72;;;21.87;40.99
46379;BME280;32084;42.254;22.744;2023-05-21T09:20:52;94942.84;;;21.61;39.18
46379;BME280;32084;42.254;22.744;2023-05-21T09:23:18;94938.72;;;21.59;39.73
46379;BME280;32084;42.254;22.744;2023-05-21T09:25:45;94937.03;;;21.58;40.03
46379;BME280;32084;42.254;22.744;2023-05-21T09:28:12;94940.22;;;21.55;40.05
46379;BME280;32084;42.254;22.744;2023-05-21T09:30:42;94931.94;;;21.50;40.03
46379;BME280;32084;42.254;22.744;2023-05-21T09:33:09;94929.47;;;21.72;41.25
46379;BME280;32084;42.254;22.744;2023-05-21T09:35:36;94930.06;;;21.74;41.58
46379;BME280;32084;42.254;22.744;2023-05-21T09:38:02;94930.53;;;21.71;41.51
46379;BME280;32084;42.254;22.744;2023-05-21T09:40:33;94929.22;;;21.73;42.04
46379;BME280;32084;42.254;22.744;2023-05-21T09:42:59;94925.56;;;21.68;41.95
46379;BME280;32084;42.254;22.744;2023-05-21T09:45:26;94923.41;;;22.17;41.32
46379;BME280;32084;42.254;22.744;2023-05-21T09:47:53;94921.56;;;22.58;41.66
46379;BME280;32084;42.254;22.744;2023-05-21T09:50:20;94931.84;;;22.68;39.99
46379;BME280;32084;42.254;22.744;2023-05-21T09:52:47;94934.34;;;22.69;39.13
46379;BME280;32084;42.254;22.744;2023-05-21T09:55:15;94939.28;;;23.01;39.68
46379;BME280;32084;42.254;22.744;2023-05-21T09:57:41;94926.47;;;23.13;39.50
46379;BME280;32084;42.254;22.744;2023-05-21T10:00:09;94923.78;;;23.02;39.21
46379;BME280;32084;42.254;22.744;2023-05-21T10:02:46;94927.16;;;22.80;38.81
46379;BME280;32084;42.254;22.744;2023-05-21T10:05:13;94923.44;;;22.57;39.59
46379;BME280;32084;42.254;22.744;2023-05-21T10:08:21;94918.53;;;23.12;40.00
46379;BME280;32084;42.254;22.744;2023-05-21T10:10:31;94912.84;;;23.13;39.46
46379;BME280;32084;42.254;22.744;2023-05-21T10:12:58;94913.25;;;23.39;40.52
46379;BME280;32084;42.254;22.744;2023-05-21T10:15:25;94913.78;;;23.36;38.93
46379;BME280;32084;42.254;22.744;2023-05-21T10:17:53;94910.28;;;23.24;39.33
46379;BME280;32084;42.254;22.744;2023-05-21T10:20:20;94907.50;;;23.52;38.95
46379;BME280;32084;42.254;22.744;2023-05-21T10:22:47;94900.94;;;24.04;39.76
46379;BME280;32084;42.254;22.744;2023-05-21T10:25:14;94898.09;;;24.55;38.26
46379;BME280;32084;42.254;22.744;2023-05-21T10:27:41;94905.59;;;24.48;37.04
46379;BME280;32084;42.254;22.744;2023-05-21T10:30:07;94903.09;;;24.63;37.42
46379;BME280;32084;42.254;22.744;2023-05-21T10:32:34;94908.25;;;24.21;37.75
46379;BME280;32084;42.254;22.744;2023-05-21T10:35:00;94909.72;;;23.72;37.31
46379;BME280;32084;42.254;22.744;2023-05-21T10:37:27;94909.97;;;23.37;37.54
46379;BME280;32084;42.254;22.744;2023-05-21T10:39:54;94903.75;;;23.25;38.70
46379;BME280;32084;42.254;22.744;2023-05-21T10:45:07;94906.94;;;22.76;37.25
46379;BME280;32084;42.254;22.744;2023-05-21T10:50:43;94901.19;;;23.35;38.14
46379;BME280;32084;42.254;22.744;2023-05-21T10:55:42;94877.22;;;23.37;38.75
46379;BME280;32084;42.254;22.744;2023-05-21T11:00:47;94886.47;;;23.19;38.95
46379;BME280;32084;42.254;22.744;2023-05-21T11:03:14;94883.38;;;22.98;39.35
46379;BME280;32084;42.254;22.744;2023-05-21T11:05:54;94882.94;;;23.35;39.01
46379;BME280;32084;42.254;22.744;2023-05-21T11:10:50;94879.69;;;23.89;37.15
46379;BME280;32084;42.254;22.744;2023-05-21T11:13:16;94871.63;;;24.00;38.35
46379;BME280;32084;42.254;22.744;2023-05-21T11:21:02;94865.41;;;23.82;35.33
46379;BME280;32084;42.254;22.744;2023-05-21T11:28:49;94868.69;;;23.33;36.85
46379;BME280;32084;42.254;22.744;2023-05-21T11:33:47;94858.44;;;23.07;37.10
46379;BME280;32084;42.254;22.744;2023-05-21T11:36:13;94864.13;;;22.88;35.63
46379;BME280;32084;42.254;22.744;2023-05-21T11:38:39;94861.38;;;22.88;37.19
46379;BME280;32084;42.254;22.744;2023-05-21T11:41:05;94857.00;;;22.87;37.19
46379;BME280;32084;42.254;22.744;2023-05-21T11:43:36;94844.09;;;22.83;38.31
46379;BME280;32084;42.254;22.744;2023-05-21T11:46:04;94859.38;;;22.84;38.56
46379;BME280;32084;42.254;22.744;2023-05-21T11:48:31;94849.47;;;22.77;37.51
46379;BME280;32084;42.254;22.744;2023-05-21T11:50:57;94848.41;;;22.78;37.88
46379;BME280;32084;42.254;22.744;2023-05-21T11:53:23;94836.19;;;22.98;38.33
46379;BME280;32084;42.254;22.744;2023-05-21T11:55:49;94837.25;;;23.09;37.90
46379;BME280;32084;42.254;22.744;2023-05-21T11:58:22;94840.91;;;23.03;38.10
46379;BME280;32084;42.254;22.744;2023-05-21T12:00:49;94840.28;;;22.84;37.92
46379;BME280;32084;42.254;22.744;2023-05-21T12:03:15;94838.88;;;22.64;36.74
46379;BME280;32084;42.254;22.744;2023-05-21T12:05:45;94836.59;;;22.73;37.75
46379;BME280;32084;42.254;22.744;2023-05-21T12:08:12;94834.88;;;22.55;37.56
46379;BME280;32084;42.254;22.744;2023-05-21T12:10:38;94843.22;;;22.36;37.25
46379;BME280;32084;42.254;22.744;2023-05-21T12:13:07;94841.94;;;22.39;38.06
46379;BME280;32084;42.254;22.744;2023-05-21T12:15:33;94845.59;;;22.33;36.93
46379;BME280;32084;42.254;22.744;2023-05-21T12:17:59;94845.88;;;22.31;35.42
46379;BME280;32084;42.254;22.744;2023-05-21T12:20:25;94831.50;;;22.36;37.61
46379;BME280;32084;42.254;22.744;2023-05-21T12:22:52;94841.00;;;22.33;36.30
46379;BME280;32084;42.254;22.744;2023-05-21T12:25:19;94842.75;;;22.39;37.10
46379;BME280;32084;42.254;22.744;2023-05-21T12:27:46;94839.00;;;22.29;36.25
46379;BME280;32084;42.254;22.744;2023-05-21T12:30:12;94834.41;;;22.29;36.92
46379;BME280;32084;42.254;22.744;2023-05-21T12:32:41;94833.81;;;22.27;37.64
46379;BME280;32084;42.254;22.744;2023-05-21T12:35:29;94832.75;;;22.16;37.80
46379;BME280;32084;42.254;22.744;2023-05-21T12:37:55;94823.06;;;22.09;39.53
46379;BME280;32084;42.254;22.744;2023-05-21T12:40:21;94825.31;;;22.00;38.59
46379;BME280;32084;42.254;22.744;2023-05-21T12:42:59;94824.13;;;22.08;38.79
46379;BME280;32084;42.254;22.744;2023-05-21T12:45:25;94825.88;;;22.14;39.08
46379;BME280;32084;42.254;22.744;2023-05-21T12:47:51;94829.44;;;22.14;38.61
46379;BME280;32084;42.254;22.744;2023-05-21T12:50:20;94832.16;;;22.26;38.69
46379;BME280;32084;42.254;22.744;2023-05-21T12:52:46;94829.03;;;22.22;39.26
46379;BME280;32084;42.254;22.744;2023-05-21T12:55:13;94830.53;;;22.42;38.02
46379;BME280;32084;42.254;22.744;2023-05-21T12:57:39;94835.97;;;22.54;38.69
46379;BME280;32084;42.254;22.744;2023-05-21T13:00:06;94820.78;;;22.58;39.20
46379;BME280;32084;42.254;22.744;2023-05-21T13:02:33;94819.66;;;22.88;39.27
46379;BME280;32084;42.254;22.744;2023-05-21T13:05:03;94835.25;;;23.04;37.92
46379;BME280;32084;42.254;22.744;2023-05-21T13:07:30;94830.72;;;22.81;37.42
46379;BME280;32084;42.254;22.744;2023-05-21T13:09:57;94824.28;;;22.87;38.32
46379;BME280;32084;42.254;22.744;2023-05-21T13:12:27;94823.63;;;22.97;39.36
46379;BME280;32084;42.254;22.744;2023-05-21T13:14:54;94825.63;;;22.85;37.90